createdAt,value
2018-05-13T00:29:10.323Z,4.60
2018-05-13T00:34:12.981Z,4.00
2018-05-13T00:39:16.693Z,3.90
2018-05-13T00:44:20.419Z,4.30
2018-05-13T00:49:24.009Z,4.20
2018-05-13T00:54:38.665Z,4.27
2018-05-13T00:59:42.399Z,4.90
2018-05-13T01:04:45.905Z,3.80
2018-05-13T01:09:49.384Z,3.77
2018-05-13T01:14:55.393Z,3.40
2018-05-13T01:19:59.004Z,3.43
2018-05-13T01:25:02.584Z,3.30
2018-05-13T01:30:07.772Z,3.10
2018-05-13T01:35:10.559Z,3.73
2018-05-13T01:40:14.275Z,3.30
2018-05-13T01:45:17.067Z,3.70
2018-05-13T01:50:19.751Z,3.50
2018-05-13T01:55:27.469Z,3.70
2018-05-13T02:00:30.374Z,3.40
2018-05-13T02:05:33.749Z,3.00
2018-05-13T02:10:36.493Z,3.00
2018-05-13T02:15:54.194Z,3.57
2018-05-13T02:20:59.402Z,3.43
2018-05-13T02:26:02.209Z,3.27
2018-05-13T02:31:06.649Z,3.10
2018-05-13T02:36:09.818Z,3.07
2018-05-13T02:41:13.385Z,3.30
2018-05-13T02:46:16.316Z,3.47
2018-05-13T02:51:19.388Z,3.67
2018-05-13T02:56:22.228Z,3.70
2018-05-13T03:01:25.456Z,3.30
2018-05-13T03:06:31.090Z,3.30
2018-05-13T03:11:34.260Z,3.50
2018-05-13T03:16:37.204Z,3.70
2018-05-13T03:21:39.921Z,3.80
2018-05-13T03:26:42.747Z,3.70
2018-05-13T03:31:45.925Z,3.50
2018-05-13T03:36:48.642Z,3.40
2018-05-13T03:41:51.426Z,3.43
2018-05-13T03:46:55.382Z,3.77
2018-05-13T03:51:57.985Z,3.97
2018-05-13T03:57:00.758Z,3.23
2018-05-13T04:02:06.530Z,4.07
2018-05-13T04:07:10.971Z,3.70
2018-05-13T04:12:26.608Z,3.90
2018-05-13T04:17:29.532Z,3.60
2018-05-13T04:22:33.168Z,4.00
2018-05-13T04:27:36.943Z,3.53
2018-05-13T04:32:41.891Z,4.37
2018-05-13T04:37:46.756Z,3.83
2018-05-13T04:42:50.780Z,3.80
2018-05-13T04:47:54.602Z,4.50
2018-05-13T04:52:57.335Z,4.00
2018-05-13T04:58:01.023Z,3.93
2018-05-13T05:03:03.645Z,3.83
2018-05-13T05:08:07.448Z,4.13
2018-05-13T05:13:10.453Z,4.30
2018-05-13T05:18:21.747Z,3.63
2018-05-13T05:23:27.323Z,4.37
2018-05-13T05:28:31.448Z,5.17
2018-05-13T05:33:34.193Z,4.50
2018-05-13T05:38:37.496Z,4.30
2018-05-13T05:43:46.721Z,4.53
2018-05-13T05:48:51.276Z,4.83
2018-05-13T05:54:06.204Z,5.23
2018-05-13T05:59:12.166Z,4.83
2018-05-13T06:09:44.471Z,4.73
2018-05-13T06:14:48.356Z,5.13
2018-05-13T06:19:51.835Z,4.67
2018-05-13T06:24:58.707Z,4.40
2018-05-13T06:30:02.327Z,5.47
2018-05-13T06:35:05.926Z,4.77
2018-05-13T06:40:09.379Z,5.10
2018-05-13T06:45:33.383Z,4.90
2018-05-13T06:50:44.235Z,5.10
2018-05-13T07:01:31.950Z,5.07
2018-05-13T07:06:40.364Z,5.60
2018-05-13T07:11:54.161Z,5.27
2018-05-13T07:17:00.063Z,5.57
2018-05-13T07:22:04.309Z,5.20
2018-05-13T07:27:07.999Z,5.00
2018-05-13T07:32:10.724Z,4.63
2018-05-13T07:37:14.425Z,4.27
2018-05-13T07:42:18.252Z,4.40
2018-05-13T07:47:24.127Z,4.87
2018-05-13T07:52:26.758Z,4.20
2018-05-13T07:57:30.349Z,4.47
2018-05-13T08:02:33.561Z,4.70
2018-05-13T08:07:51.070Z,4.70
2018-05-13T08:13:05.535Z,4.30
2018-05-13T08:18:10.864Z,4.13
2018-05-13T08:23:13.861Z,3.90
2018-05-13T08:28:17.786Z,4.80
2018-05-13T08:33:20.478Z,5.10
2018-05-13T08:44:11.055Z,4.77
2018-05-13T08:49:14.821Z,4.43
2018-05-13T08:54:17.809Z,4.87
2018-05-13T08:59:21.096Z,4.00
2018-05-13T09:04:23.806Z,4.63
2018-05-13T09:09:26.474Z,4.10
2018-05-13T09:14:29.191Z,4.90
2018-05-13T09:19:32.884Z,4.53
2018-05-13T09:24:40.136Z,5.03
2018-05-13T09:29:43.342Z,4.23
2018-05-13T09:40:27.043Z,4.83
2018-05-13T09:45:30.257Z,5.23
2018-05-13T09:50:33.674Z,5.37
2018-05-13T09:55:39.138Z,4.40
2018-05-13T10:00:42.280Z,4.50
2018-05-13T10:05:45.058Z,5.70
2018-05-13T10:10:48.779Z,4.87
2018-05-13T10:15:51.478Z,5.83
2018-05-13T10:20:54.955Z,5.77
2018-05-13T10:25:57.722Z,5.50
2018-05-13T10:31:01.667Z,5.67
2018-05-13T10:36:05.963Z,4.60
2018-05-13T10:41:09.375Z,5.30
2018-05-13T10:46:12.089Z,5.70
2018-05-13T10:51:14.887Z,4.63
2018-05-13T10:56:25.096Z,4.20
2018-05-13T11:01:29.311Z,6.00
2018-05-13T11:06:32.208Z,5.63
2018-05-13T11:11:36.096Z,5.27
2018-05-13T11:16:39.761Z,5.47
2018-05-13T11:21:46.152Z,4.87
2018-05-13T11:26:48.943Z,5.83
2018-05-13T11:31:51.655Z,7.53
2018-05-13T11:36:54.380Z,5.67
2018-05-13T11:41:57.872Z,5.90
2018-05-13T11:47:02.183Z,5.43
2018-05-13T11:52:05.129Z,5.17
2018-05-13T11:57:09.050Z,4.40
2018-05-13T12:02:26.150Z,5.07
2018-05-13T12:12:58.447Z,5.83
2018-05-13T12:18:03.575Z,5.23
2018-05-13T12:23:07.059Z,5.80
2018-05-13T12:28:10.965Z,5.30
2018-05-13T12:33:15.067Z,5.10
2018-05-13T12:38:19.610Z,5.67
2018-05-13T12:43:22.406Z,5.70
2018-05-13T12:48:26.333Z,5.13
2018-05-13T12:53:30.132Z,5.37
2018-05-13T12:58:35.014Z,4.87
2018-05-13T13:03:38.433Z,5.60
2018-05-13T13:08:41.239Z,6.07
2018-05-13T13:13:45.482Z,5.70
2018-05-13T13:18:51.140Z,5.70
2018-05-13T13:34:11.120Z,5.33
2018-05-13T13:39:13.988Z,5.70
2018-05-13T13:44:17.736Z,5.07
2018-05-13T13:49:22.435Z,5.70
2018-05-13T13:59:42.474Z,5.57
2018-05-13T14:04:46.250Z,6.00
2018-05-13T14:09:52.863Z,5.60
2018-05-13T14:14:58.225Z,5.03
2018-05-13T14:20:01.161Z,5.27
2018-05-13T14:25:03.978Z,5.90
2018-05-13T14:30:07.455Z,5.60
2018-05-13T14:35:10.360Z,5.13
2018-05-13T14:51:40.343Z,5.70
2018-05-13T14:56:44.372Z,6.30
2018-05-13T15:01:47.283Z,6.63
2018-05-13T15:06:50.125Z,7.23
2018-05-13T15:11:53.646Z,6.60
2018-05-13T15:16:57.881Z,7.07
2018-05-13T15:22:01.413Z,6.87
2018-05-13T15:27:04.805Z,7.27
2018-05-13T15:32:09.499Z,7.37
2018-05-13T15:37:13.590Z,6.97
2018-05-13T15:42:16.932Z,6.30
2018-05-13T15:47:20.848Z,5.90
2018-05-13T15:52:24.531Z,4.73
2018-05-13T15:57:27.373Z,5.50
2018-05-13T16:02:30.882Z,4.90
2018-05-13T16:07:33.548Z,4.10
2018-05-13T16:12:36.207Z,4.43
2018-05-13T16:17:39.451Z,3.57
2018-05-13T16:22:42.107Z,3.50
2018-05-13T16:27:45.590Z,4.47
2018-05-13T16:32:48.260Z,3.50
2018-05-13T16:37:51.028Z,4.10
2018-05-13T16:43:14.484Z,4.23
2018-05-13T16:53:47.557Z,4.60
2018-05-13T16:59:16.014Z,4.60
2018-05-13T17:04:28.184Z,4.27
2018-05-13T17:09:33.606Z,3.60
2018-05-13T17:14:36.669Z,3.43
2018-05-13T17:19:39.427Z,3.80
2018-05-13T17:24:42.273Z,3.50
2018-05-13T17:29:47.644Z,3.90
2018-05-13T17:34:51.700Z,3.23
2018-05-13T17:39:55.090Z,3.10
2018-05-13T17:44:58.705Z,3.93
2018-05-13T17:50:02.753Z,3.70
2018-05-13T17:55:07.183Z,2.97
2018-05-13T18:00:11.355Z,3.60
2018-05-13T18:05:33.247Z,3.50
2018-05-13T18:10:52.726Z,3.27
2018-05-13T18:15:56.284Z,2.90
2018-05-13T18:21:00.480Z,3.20
2018-05-13T18:26:07.219Z,2.80
2018-05-13T18:31:23.373Z,3.30
2018-05-13T18:36:40.847Z,3.20
2018-05-13T18:41:49.970Z,3.07
2018-05-13T18:46:53.898Z,3.43
2018-05-13T18:51:58.316Z,3.50
2018-05-13T18:57:01.159Z,3.30
2018-05-13T19:02:05.070Z,3.43
2018-05-13T19:07:13.041Z,3.97
2018-05-13T19:12:16.406Z,4.00
2018-05-13T19:17:19.388Z,3.80
2018-05-13T19:22:23.211Z,3.70
2018-05-13T19:27:26.730Z,4.00
2018-05-13T19:32:29.520Z,3.70
2018-05-13T19:37:34.711Z,4.20
2018-05-13T19:42:40.569Z,3.80
2018-05-13T19:47:43.678Z,4.07
2018-05-13T19:52:46.583Z,4.40
2018-05-13T19:57:50.527Z,4.77
2018-05-13T20:02:53.642Z,4.60
2018-05-13T20:08:12.892Z,4.70
2018-05-13T20:18:56.361Z,4.63
2018-05-13T20:24:17.002Z,5.10
2018-05-13T20:34:58.728Z,5.40
2018-05-13T20:40:02.410Z,3.57
2018-05-13T20:45:07.687Z,4.00
2018-05-13T20:50:11.056Z,2.97
2018-05-13T20:55:18.641Z,3.17
2018-05-13T21:00:22.448Z,3.03
2018-05-13T21:05:26.539Z,2.93
2018-05-13T21:10:30.629Z,3.53
2018-05-13T21:15:41.701Z,3.37
2018-05-13T21:20:44.493Z,4.43
2018-05-13T21:25:47.280Z,5.20
2018-05-13T21:30:50.612Z,4.40
2018-05-13T21:35:55.463Z,3.90
2018-05-13T21:40:58.279Z,4.93
2018-05-13T21:46:01.950Z,5.77
2018-05-13T21:51:04.897Z,6.33
2018-05-13T21:56:07.969Z,6.53
2018-05-13T22:01:10.591Z,7.43
2018-05-13T22:06:13.191Z,7.30
2018-05-13T22:11:16.073Z,7.30
2018-05-13T22:16:18.643Z,8.50
2018-05-13T22:21:21.231Z,9.13
2018-05-13T22:26:24.252Z,9.57
2018-05-13T22:31:26.927Z,9.63
2018-05-13T22:36:31.434Z,10.27
2018-05-13T22:41:34.004Z,7.93
2018-05-13T22:46:36.557Z,8.10
2018-05-13T22:51:39.882Z,7.20
2018-05-13T22:56:43.665Z,7.43
2018-05-13T23:01:46.243Z,7.43
2018-05-13T23:07:03.411Z,6.90
2018-05-13T23:12:05.990Z,5.80
2018-05-13T23:17:08.552Z,6.80
2018-05-13T23:22:17.299Z,6.03
2018-05-13T23:27:20.397Z,7.13
2018-05-13T23:32:22.958Z,6.77
2018-05-13T23:37:25.532Z,5.83
2018-05-13T23:42:28.091Z,5.67
2018-05-13T23:47:31.338Z,5.13
2018-05-13T23:52:33.893Z,4.43
2018-05-13T23:57:37.697Z,4.40
